Terminal Aerodrome Forecast
Issued by NWS Wilmington, OH

Current Version | Previous Version | Graphics & Text | Print | Product List | Glossary On
Versions: 1 2 3 4 5 6 7 8 9 10 11 12 13 14 15 16 17 18
000
FTUS41 KILN 241100
TAFDAY
TAF
KDAY 241139Z 2412/2512 16007KT P6SM OVC080
     FM241400 17009KT P6SM VCSH OVC015
     FM241600 20011KT P6SM BKN015 OVC040
     FM242000 23016G24KT P6SM -SHRA OVC012
     FM242300 25025G40KT P6SM OVC015
     FM250300 24020G30KT P6SM OVC015
     FM250800 24016G24KT P6SM VCSH OVC018=

USA.gov is the U.S. government's official web portal to all federal, state and local government web resources and services.